Sears, Michigan
Current Conditions -  °F | °C
As of 10:54 PM on Tuesday 27 Jan 2015 (Local Time) from KRQB Reporting Station
Clear Clear  
Wind Chill: 11°   Ceiling: Unl
Heat Index: 11°   Visibility: 10mi
Dew Point:   Wind: 0mph
Humidity: 75%   Direction: NA
Pressure: 30.22"   Gusts: NA
Location:  43.9°N, 85.18°W
Report Text: KRQB 280354Z AUTO 00000KT 10SM CLR M12/M15 A3022 RMK AO2 T11161153
Loading
Personal Weather Stations






























Interactive Weather Map New forecast layout! Learn more

10-Day Weather Forecast

Advertisements
Track Severe Weather on mobile